createdAt,value
2017-09-21T00:00:19.993Z,23.8
2017-09-21T00:02:53.083Z,23.8
2017-09-21T00:03:54.875Z,23.8
2017-09-21T00:04:57.002Z,23.8
2017-09-21T00:05:59.131Z,23.8
2017-09-21T00:07:01.260Z,23.8
2017-09-21T00:08:02.734Z,23.8
2017-09-21T00:09:04.860Z,23.8
2017-09-21T00:10:06.652Z,23.8
2017-09-21T00:11:08.779Z,23.8
2017-09-21T00:12:10.905Z,23.8
2017-09-21T00:13:12.699Z,23.8
2017-09-21T00:14:14.492Z,23.8
2017-09-21T00:15:16.301Z,23.8
2017-09-21T00:16:17.738Z,23.9
2017-09-21T00:17:19.192Z,23.8
2017-09-21T00:18:20.625Z,23.8
2017-09-21T00:19:22.084Z,23.8
2017-09-21T00:20:23.521Z,23.8
2017-09-21T00:21:25.294Z,23.9
2017-09-21T00:22:26.753Z,23.8
2017-09-21T00:23:28.879Z,23.8
2017-09-21T00:24:30.674Z,23.8
2017-09-21T00:25:32.475Z,23.8
2017-09-21T00:26:33.577Z,23.8
2017-09-21T00:27:35.369Z,23.8
2017-09-21T00:28:36.831Z,23.8
2017-09-21T00:29:38.277Z,23.8
2017-09-21T00:30:40.405Z,23.7
2017-09-21T00:31:42.195Z,23.8
2017-09-21T00:32:44.324Z,23.8
2017-09-21T00:33:45.095Z,23.7
2017-09-21T00:34:45.865Z,23.8
2017-09-21T00:35:47.661Z,23.8
2017-09-21T00:36:49.453Z,23.8
2017-09-21T00:37:51.245Z,23.7
2017-09-21T00:38:53.372Z,23.8
2017-09-21T00:39:55.167Z,23.8
2017-09-21T00:40:57.302Z,23.8
2017-09-21T00:41:59.425Z,23.8
2017-09-21T00:43:00.864Z,23.7
2017-09-21T00:44:02.639Z,23.8
2017-09-21T00:45:03.738Z,23.8
2017-09-21T00:46:05.177Z,23.8
2017-09-21T00:47:07.309Z,23.8
2017-09-21T00:48:08.071Z,23.8
2017-09-21T00:49:09.865Z,23.7
2017-09-21T00:50:11.657Z,23.7
2017-09-21T00:51:13.114Z,23.8
2017-09-21T00:52:15.242Z,23.7
2017-09-21T00:53:17.369Z,23.7
2017-09-21T00:54:18.830Z,23.7
2017-09-21T00:55:20.263Z,23.7
2017-09-21T00:56:22.035Z,23.8
2017-09-21T00:57:23.492Z,23.7
2017-09-21T00:58:25.285Z,23.7
2017-09-21T00:59:26.723Z,23.7
2017-09-21T01:00:28.523Z,23.7
2017-09-21T01:01:30.649Z,23.7
2017-09-21T01:02:32.445Z,23.7
2017-09-21T01:03:33.546Z,23.8
2017-09-21T01:04:35.675Z,23.7
2017-09-21T01:05:37.801Z,23.7
2017-09-21T01:06:39.936Z,23.7
2017-09-21T01:07:42.056Z,23.7
2017-09-21T01:08:44.207Z,23.7
2017-09-21T01:09:45.980Z,23.7
2017-09-21T01:10:47.772Z,23.7
2017-09-21T01:11:49.909Z,23.7
2017-09-21T01:12:51.708Z,23.7
2017-09-21T01:13:53.140Z,23.7
2017-09-21T01:14:55.274Z,23.7
2017-09-21T01:15:56.377Z,23.7
2017-09-21T01:16:58.163Z,23.7
2017-09-21T01:18:00.292Z,23.7
2017-09-21T01:19:01.748Z,23.7
2017-09-21T01:20:03.875Z,23.7
2017-09-21T01:21:05.334Z,23.8
2017-09-21T01:22:07.464Z,23.7
2017-09-21T01:23:08.945Z,23.7
2017-09-21T01:24:10.739Z,23.7
2017-09-21T01:25:12.537Z,23.6
2017-09-21T01:26:13.996Z,23.7
2017-09-21T01:27:15.788Z,23.7
2017-09-21T01:28:17.916Z,23.7
2017-09-21T01:29:19.745Z,23.7
2017-09-21T01:30:21.168Z,23.7
2017-09-21T01:31:22.963Z,23.7
2017-09-21T01:32:25.092Z,23.7
2017-09-21T01:33:26.531Z,23.6
2017-09-21T01:34:28.303Z,23.6
2017-09-21T01:35:29.745Z,23.7
2017-09-21T01:36:31.182Z,23.6
2017-09-21T01:37:32.637Z,23.6
2017-09-21T01:38:34.408Z,23.6
2017-09-21T01:39:36.201Z,23.7
2017-09-21T01:40:37.656Z,23.7
2017-09-21T01:41:39.449Z,23.7
2017-09-21T01:42:41.242Z,23.6
2017-09-21T01:43:43.032Z,23.6
2017-09-21T01:44:44.489Z,23.6
2017-09-21T01:45:46.271Z,23.6
2017-09-21T01:46:48.063Z,23.6
2017-09-21T01:47:49.170Z,23.6
2017-09-21T01:48:51.301Z,23.6
2017-09-21T01:49:52.740Z,23.6
2017-09-21T01:50:54.536Z,23.6
2017-09-21T01:51:55.660Z,23.6
2017-09-21T01:52:57.798Z,23.6
2017-09-21T01:53:59.237Z,23.6
2017-09-21T01:55:01.008Z,23.6
2017-09-21T01:56:02.467Z,23.6
2017-09-21T01:57:04.595Z,23.6
2017-09-21T01:58:06.387Z,23.6
2017-09-21T01:59:08.159Z,23.6
2017-09-21T02:00:09.956Z,23.6
2017-09-21T02:01:11.416Z,23.6
2017-09-21T02:02:12.871Z,23.5
2017-09-21T02:03:14.999Z,23.6
2017-09-21T02:04:17.128Z,23.6
2017-09-21T02:05:19.258Z,23.6
2017-09-21T02:06:21.058Z,23.6
2017-09-21T02:07:22.850Z,23.6
2017-09-21T02:08:24.979Z,23.6
2017-09-21T02:09:26.772Z,23.6
2017-09-21T02:10:28.899Z,23.6
2017-09-21T02:11:30.670Z,23.6
2017-09-21T02:12:32.463Z,23.6
2017-09-21T02:13:33.899Z,23.6
2017-09-21T02:14:35.341Z,23.6
2017-09-21T02:15:36.777Z,23.6
2017-09-21T02:16:38.905Z,23.7
2017-09-21T02:17:40.674Z,23.6
2017-09-21T02:18:41.777Z,23.5
2017-09-21T02:19:42.880Z,23.6
2017-09-21T02:20:44.339Z,23.6
2017-09-21T02:21:46.465Z,23.6
2017-09-21T02:22:47.589Z,23.6
2017-09-21T02:23:49.712Z,23.6
2017-09-21T02:24:51.505Z,23.6
2017-09-21T02:25:53.676Z,23.6
2017-09-21T02:26:55.446Z,23.5
2017-09-21T02:27:57.215Z,23.6
2017-09-21T02:28:58.673Z,23.5
2017-09-21T02:30:00.111Z,23.5
2017-09-21T02:31:01.572Z,23.5
2017-09-21T02:32:03.060Z,23.5
2017-09-21T02:33:04.855Z,23.5
2017-09-21T02:34:06.627Z,23.6
2017-09-21T02:35:08.419Z,23.6
2017-09-21T02:36:09.531Z,23.6
2017-09-21T02:37:10.969Z,23.6
2017-09-21T02:38:12.748Z,23.6
2017-09-21T02:39:14.876Z,23.5
2017-09-21T02:40:16.666Z,23.5
2017-09-21T02:41:18.440Z,23.5
2017-09-21T02:42:19.873Z,23.6
2017-09-21T02:43:21.357Z,23.5
2017-09-21T02:44:23.485Z,23.5
2017-09-21T02:45:24.921Z,23.5
2017-09-21T02:46:26.362Z,23.5
2017-09-21T02:47:28.151Z,23.5
2017-09-21T02:48:29.944Z,23.5
2017-09-21T02:49:31.744Z,23.5
2017-09-21T02:50:33.869Z,23.4
2017-09-21T02:51:34.999Z,23.6
2017-09-21T02:52:37.123Z,23.5
2017-09-21T02:53:39.263Z,23.5
2017-09-21T02:54:41.053Z,23.5
2017-09-21T02:55:42.163Z,23.5
2017-09-21T02:56:43.283Z,23.5
2017-09-21T02:57:45.078Z,23.4
2017-09-21T02:58:46.869Z,23.4
2017-09-21T02:59:48.656Z,23.5
2017-09-21T03:00:50.447Z,23.5
2017-09-21T03:01:52.217Z,23.6
2017-09-21T03:02:53.336Z,23.5
2017-09-21T03:03:55.462Z,23.5
2017-09-21T03:04:57.253Z,23.6
2017-09-21T03:05:59.045Z,23.4
2017-09-21T03:07:00.479Z,23.4
2017-09-21T03:08:02.278Z,23.5
2017-09-21T03:09:03.378Z,23.5
2017-09-21T03:10:05.507Z,23.5
2017-09-21T03:11:07.302Z,23.5
2017-09-21T03:12:09.100Z,23.5
2017-09-21T03:13:10.896Z,23.6
2017-09-21T03:14:13.022Z,23.5
2017-09-21T03:15:15.151Z,23.6
2017-09-21T03:16:16.588Z,23.5
2017-09-21T03:17:18.026Z,23.5
2017-09-21T03:18:19.820Z,23.6
2017-09-21T03:19:21.278Z,23.5
2017-09-21T03:20:22.721Z,23.5
2017-09-21T03:21:24.847Z,23.5
2017-09-21T03:22:26.631Z,23.5
2017-09-21T03:23:28.424Z,23.5
2017-09-21T03:24:29.864Z,23.4
2017-09-21T03:25:31.659Z,23.5
2017-09-21T03:26:33.786Z,23.5
2017-09-21T03:27:35.585Z,23.6
2017-09-21T03:28:37.374Z,23.5
2017-09-21T03:29:39.502Z,23.5
2017-09-21T03:30:41.294Z,23.5
2017-09-21T03:31:43.421Z,23.5
2017-09-21T03:32:44.859Z,23.4
2017-09-21T03:33:46.994Z,23.6
2017-09-21T03:34:49.114Z,23.5
2017-09-21T03:35:51.244Z,23.4
2017-09-21T03:36:52.678Z,23.5
2017-09-21T03:37:54.135Z,23.5
2017-09-21T03:38:56.261Z,23.5
2017-09-21T03:39:58.053Z,23.5
2017-09-21T03:40:59.861Z,23.4
2017-09-21T03:42:01.660Z,23.4
2017-09-21T03:43:03.452Z,23.5
2017-09-21T03:44:04.909Z,23.6
2017-09-21T03:45:06.367Z,23.4
2017-09-21T03:46:08.493Z,23.4
2017-09-21T03:47:10.639Z,23.5
2017-09-21T03:48:12.767Z,23.4
2017-09-21T03:49:14.893Z,23.4
2017-09-21T03:50:16.684Z,23.4
2017-09-21T03:51:18.454Z,23.4
2017-09-21T03:52:20.593Z,23.4
2017-09-21T03:53:21.689Z,23.4
2017-09-21T03:54:23.486Z,23.5
2017-09-21T03:55:24.922Z,23.4
2017-09-21T03:56:26.714Z,23.4
2017-09-21T03:57:28.846Z,23.4
2017-09-21T03:58:30.617Z,23.4
2017-09-21T03:59:32.410Z,23.5
2017-09-21T04:00:34.539Z,23.5
2017-09-21T04:01:35.998Z,23.5
2017-09-21T04:02:37.433Z,23.4
2017-09-21T04:03:39.560Z,23.4
2017-09-21T04:04:41.691Z,23.4
2017-09-21T04:05:43.817Z,23.4
2017-09-21T04:06:45.614Z,23.4
2017-09-21T04:07:47.050Z,23.4
2017-09-21T04:08:48.510Z,23.4
2017-09-21T04:09:49.951Z,23.5
2017-09-21T04:10:51.744Z,23.4
2017-09-21T04:11:53.535Z,23.5
2017-09-21T04:12:54.993Z,23.4
2017-09-21T04:13:57.130Z,23.4
2017-09-21T04:14:59.248Z,23.4
2017-09-21T04:16:01.374Z,23.4
2017-09-21T04:17:03.169Z,23.4
2017-09-21T04:18:04.635Z,23.4
2017-09-21T04:19:06.757Z,23.4
2017-09-21T04:20:08.883Z,23.4
2017-09-21T04:21:11.011Z,23.4
2017-09-21T04:22:12.448Z,23.4
2017-09-21T04:23:14.240Z,23.4
2017-09-21T04:24:16.367Z,23.5
2017-09-21T04:25:17.824Z,23.5
2017-09-21T04:26:19.617Z,23.5
2017-09-21T04:27:20.722Z,23.4
2017-09-21T04:28:22.853Z,23.5
2017-09-21T04:29:24.672Z,23.5
2017-09-21T04:30:26.464Z,23.5
2017-09-21T04:31:28.596Z,23.5
2017-09-21T04:32:30.050Z,23.5
2017-09-21T04:33:32.173Z,23.6
2017-09-21T04:34:34.301Z,23.6
2017-09-21T04:35:36.074Z,23.6
2017-09-21T04:36:37.533Z,23.5
2017-09-21T04:37:39.660Z,23.6
2017-09-21T04:38:41.451Z,23.6
2017-09-21T04:39:43.580Z,23.6
2017-09-21T04:40:45.017Z,23.6
2017-09-21T04:41:46.475Z,23.6
2017-09-21T04:42:48.266Z,23.6
2017-09-21T04:43:50.394Z,23.6
2017-09-21T04:44:52.185Z,23.6
2017-09-21T04:45:53.640Z,23.6
2017-09-21T04:46:55.769Z,23.7
2017-09-21T04:47:57.897Z,23.6
2017-09-21T04:48:59.689Z,23.6
2017-09-21T04:50:01.484Z,23.6
2017-09-21T04:51:03.260Z,23.6
2017-09-21T04:52:05.382Z,23.7
2017-09-21T04:53:06.818Z,23.7
2017-09-21T04:54:08.950Z,23.7
2017-09-21T04:55:11.081Z,23.6
2017-09-21T04:56:12.519Z,23.7
2017-09-21T04:57:13.978Z,23.6
2017-09-21T04:58:16.104Z,23.7
2017-09-21T04:59:18.233Z,23.7
2017-09-21T05:00:20.004Z,23.7
2017-09-21T05:01:21.801Z,23.7
2017-09-21T05:02:23.595Z,23.6
2017-09-21T05:03:25.395Z,23.7
2017-09-21T05:04:26.496Z,23.6
2017-09-21T05:05:28.288Z,23.7
2017-09-21T05:06:30.427Z,23.8
2017-09-21T05:07:32.553Z,23.7
2017-09-21T05:08:34.325Z,23.7
2017-09-21T05:09:35.766Z,23.8
2017-09-21T05:10:37.558Z,23.7
2017-09-21T05:11:39.329Z,23.8
2017-09-21T05:12:41.123Z,23.7
2017-09-21T05:13:42.586Z,23.7
2017-09-21T05:14:44.021Z,23.7
2017-09-21T05:15:45.812Z,23.8
2017-09-21T05:16:47.607Z,23.7
2017-09-21T05:17:49.735Z,23.8
2017-09-21T05:18:51.860Z,23.8
2017-09-21T05:19:53.653Z,23.7
2017-09-21T05:20:55.783Z,23.7
2017-09-21T05:21:57.929Z,23.7
2017-09-21T05:22:59.734Z,23.8
2017-09-21T05:24:01.529Z,23.8
2017-09-21T05:25:03.320Z,23.8
2017-09-21T05:26:04.423Z,23.7
2017-09-21T05:27:05.862Z,23.8
2017-09-21T05:28:07.987Z,23.8
2017-09-21T05:29:09.445Z,23.8
2017-09-21T05:30:11.235Z,23.8
2017-09-21T05:31:13.365Z,23.8
2017-09-21T05:32:15.157Z,23.8
2017-09-21T05:33:16.616Z,23.8
2017-09-21T05:34:18.057Z,23.7
2017-09-21T05:35:19.850Z,23.7
2017-09-21T05:36:21.310Z,23.8
2017-09-21T05:37:22.765Z,23.8
2017-09-21T05:38:24.893Z,23.8
2017-09-21T05:39:26.664Z,23.8
2017-09-21T05:40:28.456Z,23.8
2017-09-21T05:41:30.586Z,23.8
2017-09-21T05:42:32.022Z,23.8
2017-09-21T05:43:33.797Z,23.8
2017-09-21T05:44:35.585Z,23.8
2017-09-21T05:45:37.713Z,23.8
2017-09-21T05:46:39.510Z,23.8
2017-09-21T05:47:41.330Z,23.8
2017-09-21T05:48:43.461Z,23.7
2017-09-21T05:49:44.934Z,23.8
2017-09-21T05:50:47.130Z,23.8
2017-09-21T05:51:48.919Z,23.8
2017-09-21T05:52:50.411Z,23.7
2017-09-21T05:53:52.182Z,23.8
2017-09-21T05:54:54.342Z,23.8
2017-09-21T05:55:56.134Z,23.8
2017-09-21T05:56:57.934Z,23.8
2017-09-21T05:58:00.061Z,23.8
2017-09-21T05:59:01.522Z,23.8
2017-09-21T06:00:03.313Z,23.8
2017-09-21T06:01:05.085Z,23.8
2017-09-21T06:02:06.541Z,23.8
2017-09-21T06:03:07.982Z,23.7
2017-09-21T06:04:09.464Z,23.8
2017-09-21T06:05:10.897Z,23.8
2017-09-21T06:06:12.692Z,23.8
2017-09-21T06:07:14.138Z,23.8
2017-09-21T06:08:15.593Z,23.8
2017-09-21T06:09:17.029Z,23.7
2017-09-21T06:10:19.161Z,23.8
2017-09-21T06:11:21.285Z,23.8
2017-09-21T06:12:23.063Z,23.8
2017-09-21T06:13:24.853Z,23.8
2017-09-21T06:14:26.297Z,23.8
2017-09-21T06:15:28.068Z,23.8
2017-09-21T06:16:29.896Z,23.8
2017-09-21T06:17:31.688Z,23.8
2017-09-21T06:18:33.482Z,23.8
2017-09-21T06:19:34.918Z,23.8
2017-09-21T06:20:36.382Z,23.8
2017-09-21T06:21:38.179Z,23.8
2017-09-21T06:22:39.975Z,23.8
2017-09-21T06:23:41.077Z,23.8
2017-09-21T06:24:42.208Z,23.8
2017-09-21T06:25:43.638Z,23.8
2017-09-21T06:26:45.096Z,23.8
2017-09-21T06:27:47.223Z,23.8
2017-09-21T06:28:49.352Z,23.8
2017-09-21T06:29:51.478Z,23.8
2017-09-21T06:30:52.603Z,23.8
2017-09-21T06:31:53.708Z,23.8
2017-09-21T06:32:55.502Z,23.8
2017-09-21T06:33:56.958Z,23.8
2017-09-21T06:34:58.751Z,23.8
2017-09-21T06:36:00.545Z,23.8
2017-09-21T06:37:02.337Z,23.8
2017-09-21T06:38:04.465Z,23.8
2017-09-21T06:39:06.238Z,23.8
2017-09-21T06:40:08.010Z,23.8
2017-09-21T06:41:09.802Z,23.8
2017-09-21T06:42:11.575Z,23.8
2017-09-21T06:43:13.035Z,23.8
2017-09-21T06:44:14.808Z,23.8
2017-09-21T06:45:16.936Z,23.8
2017-09-21T06:46:19.062Z,23.8
2017-09-21T06:47:20.501Z,23.8
2017-09-21T06:48:22.296Z,23.8
2017-09-21T06:49:24.074Z,23.8
2017-09-21T06:50:25.866Z,23.8
2017-09-21T06:51:27.660Z,23.8
2017-09-21T06:52:29.455Z,23.8
2017-09-21T06:53:31.636Z,23.8
2017-09-21T06:54:32.400Z,23.8
2017-09-21T06:55:34.525Z,23.8
2017-09-21T06:56:36.319Z,23.8
2017-09-21T06:57:37.757Z,23.8
2017-09-21T06:58:39.530Z,23.8
2017-09-21T06:59:41.323Z,23.8
2017-09-21T07:00:42.427Z,23.8
2017-09-21T07:01:43.918Z,23.8
2017-09-21T07:02:45.069Z,23.8
2017-09-21T07:03:46.868Z,23.8
2017-09-21T07:04:48.678Z,23.8
2017-09-21T07:05:50.473Z,23.8
2017-09-21T07:06:51.915Z,23.8
2017-09-21T07:07:53.703Z,23.8
2017-09-21T07:08:55.831Z,23.8
2017-09-21T07:09:57.628Z,23.8
2017-09-21T07:10:59.436Z,23.8
2017-09-21T07:12:01.552Z,23.8
2017-09-21T07:13:02.653Z,23.8
2017-09-21T07:14:04.428Z,23.8
2017-09-21T07:15:05.938Z,23.8
2017-09-21T07:16:07.735Z,23.9
2017-09-21T07:17:09.538Z,23.8
2017-09-21T07:18:11.331Z,23.8
2017-09-21T07:19:13.464Z,23.8
2017-09-21T07:20:15.260Z,23.9
2017-09-21T07:21:16.364Z,23.8
2017-09-21T07:22:18.493Z,23.9
2017-09-21T07:23:19.929Z,23.9
2017-09-21T07:24:21.703Z,23.8
2017-09-21T07:25:23.829Z,23.8
2017-09-21T07:26:24.961Z,23.8
2017-09-21T07:27:27.087Z,23.8
2017-09-21T07:28:28.861Z,23.8
2017-09-21T07:29:30.988Z,23.8
2017-09-21T07:30:32.759Z,23.9
2017-09-21T07:31:34.554Z,23.9
2017-09-21T07:32:35.995Z,23.9
2017-09-21T07:33:37.790Z,23.8
2017-09-21T07:34:39.621Z,23.9
2017-09-21T07:35:41.428Z,23.9
2017-09-21T07:36:43.203Z,23.9
2017-09-21T07:37:44.975Z,23.9
2017-09-21T07:38:46.433Z,23.9
2017-09-21T07:39:48.562Z,23.9
2017-09-21T07:40:50.021Z,23.9
2017-09-21T07:41:51.482Z,23.9
2017-09-21T07:42:52.927Z,23.9
2017-09-21T07:43:54.716Z,23.9
2017-09-21T07:44:55.821Z,23.9
2017-09-21T07:45:57.635Z,23.9
2017-09-21T07:46:59.766Z,23.9
2017-09-21T07:48:01.559Z,23.9
2017-09-21T07:49:03.018Z,23.9
2017-09-21T07:50:04.121Z,23.9
2017-09-21T07:51:06.301Z,23.9
2017-09-21T07:52:08.073Z,23.9
2017-09-21T07:53:09.908Z,23.9
2017-09-21T07:54:12.044Z,23.9
2017-09-21T07:55:13.897Z,23.9
2017-09-21T07:56:15.738Z,23.9
2017-09-21T07:57:18.167Z,23.9
2017-09-21T07:58:19.645Z,23.9
2017-09-21T07:59:21.476Z,23.9
2017-09-21T08:00:22.937Z,24
2017-09-21T08:01:24.967Z,23.9
2017-09-21T08:02:27.939Z,23.9
2017-09-21T08:03:29.863Z,23.9
2017-09-21T08:04:31.663Z,23.9
2017-09-21T08:05:33.456Z,23.9
2017-09-21T08:06:35.319Z,23.9
2017-09-21T08:07:37.497Z,23.9
2017-09-21T08:08:39.290Z,23.9
2017-09-21T08:09:41.107Z,23.9
2017-09-21T08:10:42.910Z,24
2017-09-21T08:11:44.369Z,23.9
2017-09-21T08:12:46.525Z,23.9
2017-09-21T08:13:47.966Z,23.9
2017-09-21T08:14:50.168Z,23.9
2017-09-21T08:15:52.326Z,24
2017-09-21T08:16:54.194Z,24
2017-09-21T08:17:55.993Z,24
2017-09-21T08:18:57.484Z,24
2017-09-21T08:19:59.270Z,23.9
2017-09-21T08:21:01.061Z,24
2017-09-21T08:22:02.502Z,23.9
2017-09-21T08:23:04.298Z,24
2017-09-21T08:24:05.758Z,23.9
2017-09-21T08:25:07.549Z,24
2017-09-21T08:26:09.345Z,24
2017-09-21T08:27:10.791Z,24.1
2017-09-21T08:28:12.922Z,24
2017-09-21T08:29:14.700Z,24
2017-09-21T08:30:16.497Z,24.1
2017-09-21T08:31:17.603Z,24.1
2017-09-21T08:32:19.399Z,24.1
2017-09-21T08:33:21.530Z,24.1
2017-09-21T08:34:23.661Z,24.1
2017-09-21T08:35:25.121Z,24.1
2017-09-21T08:36:27.249Z,24.1
2017-09-21T08:37:29.377Z,24.1
2017-09-21T08:38:30.483Z,24.1
2017-09-21T08:39:32.279Z,24.1
2017-09-21T08:40:34.411Z,24.1
2017-09-21T08:41:35.177Z,24
2017-09-21T08:42:36.613Z,24.1
2017-09-21T08:43:38.743Z,24.1
2017-09-21T08:44:40.537Z,24.1
2017-09-21T08:45:42.310Z,24.1
2017-09-21T08:46:44.106Z,24.1
2017-09-21T08:47:45.904Z,24.1
2017-09-21T08:48:47.684Z,24.1
2017-09-21T08:49:49.143Z,24.2
2017-09-21T08:50:50.247Z,24.1
2017-09-21T08:51:51.682Z,24.1
2017-09-21T08:52:53.120Z,24.2
2017-09-21T08:53:54.221Z,24
2017-09-21T08:54:55.996Z,24.1
2017-09-21T08:55:57.467Z,24
2017-09-21T08:56:59.268Z,24.1
2017-09-21T08:58:01.060Z,24.1
2017-09-21T08:59:02.863Z,24
2017-09-21T09:00:04.317Z,24.1
2017-09-21T09:01:06.446Z,24
2017-09-21T09:02:08.239Z,24.2
2017-09-21T09:03:10.032Z,24.1
2017-09-21T09:04:11.834Z,24.1
2017-09-21T09:05:12.960Z,24.1
2017-09-21T09:06:15.093Z,24.1
2017-09-21T09:07:16.547Z,24.1
2017-09-21T09:08:17.983Z,24.2
2017-09-21T09:09:20.113Z,24.1
2017-09-21T09:10:22.245Z,24.1
2017-09-21T09:11:23.683Z,24.1
2017-09-21T09:12:25.122Z,24.2
2017-09-21T09:13:27.250Z,24.1
2017-09-21T09:14:29.062Z,24.1
2017-09-21T09:15:30.503Z,24.2
2017-09-21T09:16:32.294Z,24.1
2017-09-21T09:17:34.092Z,24.2
2017-09-21T09:18:35.889Z,24.1
2017-09-21T09:19:37.683Z,24.1
2017-09-21T09:20:39.122Z,24.1
2017-09-21T09:21:40.923Z,24.1
2017-09-21T09:22:42.046Z,24.1
2017-09-21T09:23:43.845Z,24.1
2017-09-21T09:24:45.973Z,24.1
2017-09-21T09:25:47.797Z,24.2
2017-09-21T09:26:49.240Z,24.1
2017-09-21T09:27:50.349Z,24.1
2017-09-21T09:28:52.142Z,24.2
2017-09-21T09:29:53.582Z,24.2
2017-09-21T09:30:55.377Z,24.1
2017-09-21T09:31:57.533Z,24.2
2017-09-21T09:32:59.332Z,24.2
2017-09-21T09:34:01.457Z,24.1
2017-09-21T09:35:02.914Z,24.1
2017-09-21T09:36:04.691Z,24.1
2017-09-21T09:37:06.484Z,24.1
2017-09-21T09:38:08.276Z,24.2
2017-09-21T09:39:10.072Z,24.1
2017-09-21T09:40:11.177Z,24.1
2017-09-21T09:41:13.307Z,24.1
2017-09-21T09:42:15.491Z,24.1
2017-09-21T09:43:16.954Z,24.1
2017-09-21T09:44:19.130Z,24.1
2017-09-21T09:45:19.901Z,24.1
2017-09-21T09:46:21.677Z,24.1
2017-09-21T09:47:23.146Z,24.2
2017-09-21T09:48:25.272Z,24.1
2017-09-21T09:49:27.051Z,24.2
2017-09-21T09:50:28.153Z,24.2
2017-09-21T09:51:29.622Z,24.2
2017-09-21T09:52:31.412Z,24.2
2017-09-21T09:53:33.195Z,24.2
2017-09-21T09:54:34.993Z,24.2
2017-09-21T09:55:36.791Z,24.2
2017-09-21T09:56:38.583Z,24.1
2017-09-21T09:57:40.712Z,24.2
2017-09-21T09:58:42.840Z,24.2
2017-09-21T09:59:44.301Z,24.2
2017-09-21T10:00:46.099Z,24.2
2017-09-21T10:01:47.869Z,24.3
2017-09-21T10:02:49.726Z,24.2
2017-09-21T10:03:51.499Z,24.2
2017-09-21T10:04:52.951Z,24.2
2017-09-21T10:05:54.412Z,24.2
2017-09-21T10:06:56.547Z,24.2
2017-09-21T10:07:57.987Z,24.3
2017-09-21T10:09:00.117Z,24.3
2017-09-21T10:10:01.889Z,24.2
2017-09-21T10:11:04.023Z,24.3
2017-09-21T10:12:05.461Z,24.3
2017-09-21T10:13:06.902Z,24.2
2017-09-21T10:14:08.672Z,24.2
2017-09-21T10:15:10.873Z,24.2
2017-09-21T10:16:12.997Z,24.2
2017-09-21T10:17:14.790Z,24.3
2017-09-21T10:18:16.918Z,24.3
2017-09-21T10:19:18.378Z,24.3
2017-09-21T10:20:20.521Z,24.3
2017-09-21T10:21:21.972Z,24.2
2017-09-21T10:22:24.104Z,24.3
2017-09-21T10:23:25.632Z,24.3
2017-09-21T10:24:27.106Z,24.3
2017-09-21T10:25:27.872Z,24.3
2017-09-21T10:26:29.665Z,24.3
2017-09-21T10:27:31.228Z,24.3
2017-09-21T10:28:33.021Z,24.3
2017-09-21T10:29:34.484Z,24.2
2017-09-21T10:30:35.940Z,24.3
2017-09-21T10:31:37.401Z,24.4
2017-09-21T10:32:39.199Z,24.2
2017-09-21T10:33:40.976Z,24.3
2017-09-21T10:34:43.113Z,24.2
2017-09-21T10:35:44.570Z,24.3
2017-09-21T10:36:46.701Z,24.3
2017-09-21T10:37:47.471Z,24.3
2017-09-21T10:38:49.600Z,24.3
2017-09-21T10:39:50.703Z,24.4
2017-09-21T10:40:52.503Z,24.3
2017-09-21T10:41:54.632Z,24.3
2017-09-21T10:42:56.402Z,24.4
2017-09-21T10:43:57.863Z,24.3
2017-09-21T10:44:59.661Z,24.4
2017-09-21T10:46:01.455Z,24.4
2017-09-21T10:47:03.228Z,24.4
2017-09-21T10:48:04.334Z,24.3
2017-09-21T10:49:06.461Z,24.3
2017-09-21T10:50:07.923Z,24.4
2017-09-21T10:51:10.056Z,24.4
2017-09-21T10:52:12.202Z,24.4
2017-09-21T10:53:13.992Z,24.4
2017-09-21T10:54:16.121Z,24.4
2017-09-21T10:55:18.255Z,24.4
2017-09-21T10:56:20.380Z,24.4
2017-09-21T10:57:22.153Z,24.4
2017-09-21T10:58:23.597Z,24.4
2017-09-21T10:59:24.720Z,24.4
2017-09-21T11:00:26.514Z,24.5
2017-09-21T11:01:28.026Z,24.5
2017-09-21T11:02:30.158Z,24.4
2017-09-21T11:03:31.932Z,24.5
2017-09-21T11:04:33.727Z,24.5
2017-09-21T11:05:35.215Z,24.4
2017-09-21T11:06:37.342Z,24.4
2017-09-21T11:07:38.802Z,24.4
2017-09-21T11:08:40.313Z,24.5
2017-09-21T11:09:41.414Z,24.4
2017-09-21T11:10:42.852Z,24.4
2017-09-21T11:11:44.626Z,24.5
2017-09-21T11:12:45.728Z,24.5
2017-09-21T11:13:47.504Z,24.5
2017-09-21T11:14:48.947Z,24.5
2017-09-21T11:15:50.385Z,24.5
2017-09-21T11:16:51.827Z,24.5
2017-09-21T11:17:53.285Z,24.5
2017-09-21T11:18:55.059Z,24.5
2017-09-21T11:19:56.518Z,24.5
2017-09-21T11:20:58.648Z,24.5
2017-09-21T11:22:00.442Z,24.5
2017-09-21T11:23:01.544Z,24.5
2017-09-21T11:24:03.409Z,24.6
2017-09-21T11:25:04.518Z,24.5
2017-09-21T11:26:06.311Z,24.5
2017-09-21T11:27:08.446Z,24.6
2017-09-21T11:28:10.239Z,24.6
2017-09-21T11:29:12.018Z,24.6
2017-09-21T11:30:13.810Z,24.6
2017-09-21T11:31:15.251Z,24.6
2017-09-21T11:32:16.711Z,24.6
2017-09-21T11:33:17.884Z,24.6
2017-09-21T11:34:18.651Z,24.6
2017-09-21T11:35:20.777Z,24.6
2017-09-21T11:36:22.672Z,24.6
2017-09-21T11:37:24.470Z,24.6
2017-09-21T11:38:26.265Z,24.6
2017-09-21T11:39:28.039Z,24.6
2017-09-21T11:40:29.500Z,24.6
2017-09-21T11:41:30.939Z,24.6
2017-09-21T11:42:33.069Z,24.6
2017-09-21T11:43:34.864Z,24.6
2017-09-21T11:44:36.999Z,24.7
2017-09-21T11:45:39.125Z,24.6
2017-09-21T11:46:40.919Z,24.6
2017-09-21T11:47:42.361Z,24.6
2017-09-21T11:48:44.156Z,24.7
2017-09-21T11:49:46.289Z,24.6
2017-09-21T11:50:47.397Z,24.6
2017-09-21T11:51:49.578Z,24.7
2017-09-21T11:52:51.709Z,24.7
2017-09-21T11:53:53.503Z,24.7
2017-09-21T11:54:54.960Z,24.6
2017-09-21T11:55:56.754Z,24.7
2017-09-21T11:56:57.912Z,24.7
2017-09-21T11:57:59.011Z,24.7
2017-09-21T11:59:00.451Z,24.6
2017-09-21T12:00:02.243Z,24.6
2017-09-21T12:01:04.035Z,24.6
2017-09-21T12:02:06.168Z,24.7
2017-09-21T12:03:07.608Z,24.7
2017-09-21T12:04:09.427Z,24.6
2017-09-21T12:05:10.874Z,24.7
2017-09-21T12:06:12.331Z,24.7
2017-09-21T12:07:13.768Z,24.7
2017-09-21T12:08:15.895Z,24.7
2017-09-21T12:09:17.696Z,24.7
2017-09-21T12:10:19.824Z,24.7
2017-09-21T12:11:21.955Z,24.6
2017-09-21T12:12:23.748Z,24.8
2017-09-21T12:13:25.884Z,24.7
2017-09-21T12:14:27.363Z,24.6
2017-09-21T12:15:29.261Z,24.6
2017-09-21T12:16:31.357Z,24.7
2017-09-21T12:17:34.058Z,24.7
2017-09-21T12:18:35.719Z,24.8
2017-09-21T12:19:37.187Z,24.7
2017-09-21T12:20:38.651Z,24.7
2017-09-21T12:21:40.117Z,24.7
2017-09-21T12:22:41.226Z,24.7
2017-09-21T12:23:43.005Z,24.7
2017-09-21T12:24:45.144Z,24.7
2017-09-21T12:25:46.253Z,24.7
2017-09-21T12:26:48.057Z,24.7
2017-09-21T12:27:49.512Z,24.7
2017-09-21T12:28:51.648Z,24.7
2017-09-21T12:29:53.115Z,24.7
2017-09-21T12:30:54.565Z,24.7
2017-09-21T12:31:56.036Z,24.7
2017-09-21T12:32:57.480Z,24.7
2017-09-21T12:33:59.274Z,24.7
2017-09-21T12:35:01.051Z,24.8
2017-09-21T12:36:02.850Z,24.8
2017-09-21T12:37:04.651Z,24.7
2017-09-21T12:38:06.438Z,24.8
2017-09-21T12:39:08.237Z,24.7
2017-09-21T12:40:10.038Z,24.8
2017-09-21T12:41:11.481Z,24.8
2017-09-21T12:42:13.281Z,24.8
2017-09-21T12:43:15.075Z,24.8
2017-09-21T12:44:16.876Z,24.7
2017-09-21T12:45:18.673Z,24.7
2017-09-21T12:46:20.138Z,24.8
2017-09-21T12:47:21.937Z,24.8
2017-09-21T12:48:23.734Z,24.8
2017-09-21T12:49:25.884Z,24.8
2017-09-21T12:50:26.993Z,24.8
2017-09-21T12:51:29.127Z,24.8
2017-09-21T12:52:30.928Z,24.8
2017-09-21T12:53:32.725Z,24.9
2017-09-21T12:54:34.186Z,24.8
2017-09-21T12:55:35.623Z,24.8
2017-09-21T12:56:37.088Z,24.7
2017-09-21T12:57:39.219Z,24.7
2017-09-21T12:58:40.684Z,24.8
2017-09-21T12:59:42.818Z,24.8
2017-09-21T13:00:44.277Z,24.8
2017-09-21T13:01:46.082Z,24.8
2017-09-21T13:02:47.874Z,24.8
2017-09-21T13:03:49.670Z,24.8
2017-09-21T13:04:51.466Z,24.8
2017-09-21T13:05:53.261Z,24.8
2017-09-21T13:06:55.060Z,24.9
2017-09-21T13:07:56.501Z,24.8
2017-09-21T13:08:57.964Z,24.8
2017-09-21T13:09:59.119Z,24.8
2017-09-21T13:11:00.559Z,24.8
2017-09-21T13:12:02.000Z,24.8
2017-09-21T13:13:03.777Z,24.8
2017-09-21T13:14:04.879Z,24.8
2017-09-21T13:15:06.351Z,24.8
2017-09-21T13:16:07.790Z,24.8
2017-09-21T13:17:09.246Z,24.8
2017-09-21T13:18:10.737Z,24.9
2017-09-21T13:19:12.526Z,24.8
2017-09-21T13:20:13.991Z,24.8
2017-09-21T13:21:15.787Z,24.8
2017-09-21T13:22:17.582Z,24.8
2017-09-21T13:23:18.686Z,24.8
2017-09-21T13:24:20.818Z,24.8
2017-09-21T13:25:22.284Z,24.8
2017-09-21T13:26:24.081Z,24.9
2017-09-21T13:27:25.884Z,24.8
2017-09-21T13:28:28.014Z,24.8
2017-09-21T13:29:30.152Z,24.8
2017-09-21T13:30:32.293Z,24.8
2017-09-21T13:31:33.754Z,24.8
2017-09-21T13:32:35.551Z,24.9
2017-09-21T13:33:37.363Z,24.9
2017-09-21T13:34:39.175Z,24.9
2017-09-21T13:35:41.306Z,24.9
2017-09-21T13:36:43.083Z,24.9
2017-09-21T13:37:44.549Z,24.9
2017-09-21T13:38:46.682Z,24.9
2017-09-21T13:39:48.813Z,24.9
2017-09-21T13:40:49.942Z,24.9
2017-09-21T13:41:51.714Z,24.9
2017-09-21T13:42:53.510Z,25
2017-09-21T13:43:54.624Z,24.9